createdAt,value
2022-08-16T00:04:22.044Z,99640.91
2022-08-16T00:14:23.494Z,99652.00
2022-08-16T00:24:32.194Z,99658.69
2022-08-16T00:34:41.358Z,99649.22
2022-08-16T00:44:46.129Z,99652.50
2022-08-16T00:54:47.575Z,99647.25
2022-08-16T01:05:10.355Z,99662.63
2022-08-16T01:15:11.053Z,99658.03
2022-08-16T01:25:12.842Z,99659.63
2022-08-16T01:35:16.803Z,99654.84
2022-08-16T01:45:19.665Z,99661.16
2022-08-16T01:55:21.728Z,99661.75
2022-08-16T02:05:23.633Z,99663.44
2022-08-16T02:15:25.943Z,99657.13
2022-08-16T02:25:51.685Z,99651.88
2022-08-16T02:35:54.559Z,99657.97
2022-08-16T02:45:59.946Z,99641.44
2022-08-16T02:56:01.708Z,99632.44
2022-08-16T03:06:03.134Z,99617.94
2022-08-16T03:16:33.168Z,99621.75
2022-08-16T03:26:39.965Z,99616.34
2022-08-16T03:36:43.831Z,99616.59
2022-08-16T03:46:50.176Z,99617.78
2022-08-16T03:56:57.254Z,99619.94
2022-08-16T04:06:59.516Z,99611.44
2022-08-16T04:17:01.778Z,99617.47
2022-08-16T04:27:03.154Z,99636.38
2022-08-16T04:37:10.285Z,99636.44
2022-08-16T04:47:23.912Z,99640.56
2022-08-16T04:57:25.702Z,99645.97
2022-08-16T05:07:31.578Z,99667.09
2022-08-16T05:17:35.731Z,99667.13
2022-08-16T05:27:37.493Z,99671.03
2022-08-16T05:37:44.479Z,99682.00
2022-08-16T05:47:45.822Z,99682.25
2022-08-16T05:57:47.697Z,99673.63
2022-08-16T06:07:58.225Z,99691.19
2022-08-16T06:18:00.625Z,99712.00
2022-08-16T06:28:02.001Z,99708.19
2022-08-16T06:38:31.983Z,99713.19
2022-08-16T06:48:33.199Z,99696.44
2022-08-16T06:58:35.188Z,99694.44
2022-08-16T07:08:38.357Z,99699.75
2022-08-16T07:18:39.921Z,99707.63
2022-08-16T07:29:00.849Z,99697.25
2022-08-16T07:39:02.181Z,99702.22
2022-08-16T07:49:03.513Z,99691.91
2022-08-16T07:59:05.126Z,99698.09
2022-08-16T08:09:06.472Z,99700.63
2022-08-16T08:19:12.493Z,99707.91
2022-08-16T08:29:14.068Z,99722.84
2022-08-16T08:39:15.594Z,99723.34
2022-08-16T08:49:22.416Z,99712.03
2022-08-16T08:59:46.193Z,99711.94
2022-08-16T09:09:48.349Z,99722.94
2022-08-16T09:19:55.115Z,99715.34
2022-08-16T09:30:00.414Z,99714.50
2022-08-16T09:40:04.039Z,99714.34
2022-08-16T09:50:33.273Z,99713.25
2022-08-16T10:00:44.729Z,99709.31
2022-08-16T10:11:06.812Z,99708.31
2022-08-16T10:21:10.856Z,99705.34
2022-08-16T10:31:16.784Z,99706.88
2022-08-16T10:41:34.520Z,99707.31
2022-08-16T10:52:02.331Z,99702.28
2022-08-16T11:12:19.325Z,99704.59
2022-08-16T11:22:38.624Z,99708.91
2022-08-16T11:32:44.441Z,99717.84
2022-08-16T11:42:46.053Z,99700.47
2022-08-16T11:52:47.404Z,99689.69
2022-08-16T12:02:48.786Z,99681.78
2022-08-16T12:12:52.061Z,99676.16
2022-08-16T12:22:53.483Z,99675.81
2022-08-16T12:32:57.515Z,99673.00
2022-08-16T12:43:00.701Z,99673.16
2022-08-16T12:53:02.185Z,99673.38
2022-08-16T13:03:06.100Z,99665.16
2022-08-16T13:13:10.013Z,99656.47
2022-08-16T13:23:11.759Z,99647.66
2022-08-16T13:33:26.167Z,99643.75
2022-08-16T13:43:32.635Z,99636.94
2022-08-16T13:53:34.131Z,99643.13
2022-08-16T14:03:35.436Z,99634.34
2022-08-16T14:13:38.381Z,99636.03
2022-08-16T14:23:40.478Z,99625.34
2022-08-16T14:33:42.928Z,99616.06
2022-08-16T14:43:44.612Z,99607.13
2022-08-16T14:53:46.096Z,99596.16
2022-08-16T15:03:55.323Z,99597.44
2022-08-16T15:13:56.716Z,99591.34
2022-08-16T15:23:58.067Z,99595.50
2022-08-16T15:33:59.405Z,99579.53
2022-08-16T15:44:05.285Z,99588.72
2022-08-16T15:54:29.347Z,99590.81
2022-08-16T16:04:32.802Z,99585.09
2022-08-16T16:14:34.133Z,99585.63
2022-08-16T16:24:36.086Z,99577.88
2022-08-16T16:34:37.518Z,99579.25
2022-08-16T16:44:39.684Z,99581.66
2022-08-16T16:54:52.432Z,99565.38
2022-08-16T17:04:57.603Z,99571.75
2022-08-16T17:14:59.538Z,99573.47
2022-08-16T17:25:00.874Z,99563.00
2022-08-16T17:35:10.232Z,99569.66
2022-08-16T17:45:13.016Z,99576.66
2022-08-16T17:55:14.403Z,99575.84
2022-08-16T18:05:16.312Z,99573.16
2022-08-16T18:15:18.261Z,99587.84
2022-08-16T18:25:20.823Z,99580.06
2022-08-16T18:35:22.222Z,99588.69
2022-08-16T18:45:23.650Z,99584.28
2022-08-16T18:55:25.031Z,99600.50
2022-08-16T19:05:26.669Z,99599.25
2022-08-16T19:15:28.834Z,99612.84
2022-08-16T19:25:47.395Z,99614.03
2022-08-16T19:35:51.717Z,99605.84
2022-08-16T19:45:53.008Z,99622.38
2022-08-16T19:55:54.476Z,99637.03
2022-08-16T20:05:56.595Z,99644.69
2022-08-16T20:15:57.952Z,99646.59
2022-08-16T20:25:59.293Z,99655.03
2022-08-16T20:36:00.647Z,99665.31
2022-08-16T20:46:02.018Z,99672.50
2022-08-16T20:56:03.461Z,99672.66
2022-08-16T21:06:05.400Z,99671.00
2022-08-16T21:16:06.758Z,99677.16
2022-08-16T21:26:10.892Z,99670.78
2022-08-16T21:36:12.627Z,99682.84
2022-08-16T21:46:14.011Z,99684.31
2022-08-16T21:56:16.732Z,99686.59
2022-08-16T22:06:18.839Z,99692.94
2022-08-16T22:16:20.162Z,99698.47
2022-08-16T22:26:29.943Z,99680.38
2022-08-16T22:36:32.881Z,99689.09
2022-08-16T22:46:34.960Z,99697.13
2022-08-16T22:56:36.321Z,99696.19
2022-08-16T23:06:37.654Z,99700.34
2022-08-16T23:16:38.939Z,99692.44
2022-08-16T23:26:46.920Z,99692.34
2022-08-16T23:36:49.650Z,99692.53
2022-08-16T23:46:51.027Z,99683.28
2022-08-16T23:56:52.398Z,99672.66
